Silver City, Nevada
Current Conditions -  °F | °C
As of 12:55 PM on Tuesday 25 Nov 2014 (Local Time) from KCXP Reporting Station
Clear Clear  
Wind Chill: 57°   Ceiling: Unl
Heat Index: 57°   Visibility: 10mi
Dew Point: 19°   Wind: 3mph
Humidity: 23%   Direction: 360°N
Pressure: 30.46"   Gusts: NA
Location:  39.26°N, 119.64°W
Report Text: KCXP 252055Z AUTO 36003KT 10SM CLR 14/M07 A3046 RMK AO2
Loading
Personal Weather Stations






























Interactive Weather Map New forecast layout! Learn more

10-Day Weather Forecast

Advertisements
Track Severe Weather on mobile